Time;durP1;ratioP1;P1;durP2;ratioP2;P2;SDS_P1;SDS_P2;PMS_P1;PMS_P2;Temp;Humidity;BMP_temperature;BMP_pressure;BME280_temperature;BME280_humidity;BME280_pressure;Samples;Min_cycle;Max_cycle;Signal;HPM_P1;HPM_P2
2023/09/05 00:01:54;;;;;;;7.30;5.35;;;;;;;-146.27;82.56;81719.31;5050606;28;20203;-71
2023/09/05 00:04:20;;;;;;;6.05;5.00;;;;;;;-146.27;83.09;81743.44;5046139;28;20041;-72
2023/09/05 00:06:48;;;;;;;5.82;4.55;;;;;;;-146.27;82.88;81709.28;5048914;28;20035;-73
2023/09/05 00:09:17;;;;;;;6.47;5.22;;;;;;;-146.27;83.15;81733.38;5049998;28;20043;-72
2023/09/05 00:11:42;;;;;;;8.35;5.50;;;;;;;-146.27;82.61;81669.13;5049661;28;20538;-72
2023/09/05 00:14:09;;;;;;;7.80;5.00;;;;;;;-146.27;83.05;81655.06;5036890;28;20052;-72
2023/09/05 00:16:35;;;;;;;5.35;4.13;;;;;;;-146.27;82.40;81677.16;5044917;28;20094;-73
2023/09/05 00:19:00;;;;;;;12.20;4.93;;;;;;;-146.27;82.64;81691.22;5045673;28;20037;-72
2023/09/05 00:21:25;;;;;;;7.63;5.15;;;;;;;-146.27;82.14;81655.06;5033856;28;20021;-72
2023/09/05 00:23:51;;;;;;;8.80;4.53;;;;;;;-146.27;81.95;81681.16;5041785;28;20372;-73
2023/09/05 00:26:16;;;;;;;5.30;4.72;;;;;;;-146.27;82.10;81657.06;5036578;28;20029;-74
2023/09/05 00:28:42;;;;;;;6.75;5.32;;;;;;;-146.27;82.29;81647.03;5040424;28;20029;-72
2023/09/05 00:31:08;;;;;;;5.72;4.57;;;;;;;-146.27;81.70;81639.00;5039559;28;20033;-70
2023/09/05 00:33:33;;;;;;;7.68;4.25;;;;;;;-146.27;81.96;81677.16;5034584;28;20040;-70
2023/09/05 00:35:59;;;;;;;5.88;4.30;;;;;;;-146.27;81.72;81721.34;5044486;28;20525;-68
2023/09/05 00:38:25;;;;;;;5.07;4.47;;;;;;;-146.27;82.68;81735.41;5033640;28;20033;-69
2023/09/05 00:40:51;;;;;;;5.88;4.72;;;;;;;-146.27;82.33;81729.38;5040883;28;20103;-68
2023/09/05 00:43:20;;;;;;;7.43;5.10;;;;;;;-146.27;82.00;81753.47;5045946;28;20029;-68
2023/09/05 00:45:52;;;;;;;5.90;4.85;;;;;;;-146.27;82.55;81747.44;5046399;28;20452;-68
2023/09/05 00:48:27;;;;;;;6.28;4.75;;;;;;;-146.27;82.60;81749.47;5036787;28;20121;-68
2023/09/05 00:50:53;;;;;;;7.85;5.32;;;;;;;-146.27;82.25;81767.53;5046468;28;20033;-69
2023/09/05 00:53:18;;;;;;;9.85;5.38;;;;;;;-146.27;82.79;81803.69;5036614;28;20036;-69
2023/09/05 00:55:43;;;;;;;7.90;5.43;;;;;;;-146.27;82.49;81749.47;5035271;28;20020;-68
2023/09/05 00:58:11;;;;;;;7.60;5.50;;;;;;;-146.27;82.43;81761.50;5047191;28;20048;-68
2023/09/05 01:00:36;;;;;;;5.75;4.78;;;;;;;-146.27;82.28;81785.59;5044416;28;20032;-68
2023/09/05 01:03:02;;;;;;;6.40;4.60;;;;;;;-146.27;82.74;81817.75;5040714;28;20036;-69
2023/09/05 01:05:30;;;;;;;8.98;5.20;;;;;;;-146.27;82.70;81853.91;5045299;28;20037;-68
2023/09/05 01:08:04;;;;;;;10.05;5.43;;;;;;;-146.27;83.12;81845.88;5039702;28;20426;-68
2023/09/05 01:10:50;;;;;;;5.78;4.90;;;;;;;-146.27;82.82;81825.78;5038043;28;20036;-68
2023/09/05 01:13:36;;;;;;;5.82;5.03;;;;;;;-146.27;83.44;81811.72;5046943;28;20146;-69
2023/09/05 01:16:02;;;;;;;6.63;4.97;;;;;;;-146.27;83.93;81853.91;5043368;28;20061;-69
2023/09/05 01:18:33;;;;;;;6.38;4.55;;;;;;;-146.27;84.11;81865.94;5035678;28;20025;-68
2023/09/05 01:21:29;;;;;;;9.30;5.00;;;;;;;-146.27;84.52;81817.75;5040093;28;20056;-67
2023/09/05 01:24:17;;;;;;;9.38;4.75;;;;;;;-146.27;84.25;81819.75;5031986;28;20029;-68
2023/09/05 01:26:43;;;;;;;6.38;4.82;;;;;;;-146.27;83.81;81825.78;5037567;28;20029;-67
2023/09/05 01:29:11;;;;;;;7.18;4.45;;;;;;;-146.27;83.55;81825.78;5049566;28;20025;-67
2023/09/05 01:31:38;;;;;;;5.60;4.43;;;;;;;-146.27;83.34;81793.66;5042795;28;20083;-68
2023/09/05 01:34:04;;;;;;;7.25;4.75;;;;;;;-146.27;83.42;81777.56;5038007;28;20025;-67
2023/09/05 01:36:29;;;;;;;4.60;4.05;;;;;;;-146.27;83.17;81817.75;5037626;28;20033;-68
2023/09/05 01:38:55;;;;;;;6.93;4.35;;;;;;;-146.27;83.57;81761.50;5044800;28;20036;-68
2023/09/05 01:41:21;;;;;;;8.32;4.90;;;;;;;-146.27;83.01;81757.50;5047730;28;20021;-67
2023/09/05 01:43:47;;;;;;;5.70;4.80;;;;;;;-146.27;83.13;81771.53;5047660;28;20025;-69
2023/09/05 01:46:12;;;;;;;5.53;4.22;;;;;;;-146.27;82.88;81753.47;5044543;28;20031;-68
2023/09/05 01:48:38;;;;;;;6.18;4.70;;;;;;;-146.27;83.23;81785.59;5048489;28;20044;-69
2023/09/05 01:51:04;;;;;;;5.82;4.75;;;;;;;-146.27;83.23;81763.50;5049317;28;20064;-70
2023/09/05 01:53:30;;;;;;;8.60;5.00;;;;;;;-146.27;83.88;81771.53;5041569;28;20627;-67
2023/09/05 01:55:55;;;;;;;8.43;4.63;;;;;;;-146.27;82.66;81743.44;5041273;28;20078;-68
2023/09/05 01:58:20;;;;;;;7.18;5.43;;;;;;;-146.27;82.85;81777.56;5036565;28;20032;-67
2023/09/05 02:00:46;;;;;;;8.25;5.00;;;;;;;-146.27;82.92;81801.69;5045919;28;20029;-68
2023/09/05 02:03:11;;;;;;;5.32;4.55;;;;;;;-146.27;84.09;81857.91;5042848;28;20509;-68
2023/09/05 02:05:37;;;;;;;6.40;4.75;;;;;;;-146.27;83.58;81805.69;5057402;28;20032;-67
2023/09/05 02:08:03;;;;;;;7.15;4.70;;;;;;;-146.27;83.59;81809.72;5045921;28;20063;-67
2023/09/05 02:10:30;;;;;;;7.65;4.95;;;;;;;-146.27;83.58;81809.72;5034979;28;20036;-69
2023/09/05 02:12:55;;;;;;;9.27;5.10;;;;;;;-146.27;83.66;81829.78;5066481;28;20028;-68
2023/09/05 02:15:21;;;;;;;5.32;4.47;;;;;;;-146.27;83.53;81898.09;5034541;28;20094;-68
2023/09/05 02:17:46;;;;;;;9.35;5.20;;;;;;;-146.27;83.43;81837.81;5040019;28;20114;-67
2023/09/05 02:20:12;;;;;;;8.43;4.78;;;;;;;-146.27;83.69;81817.75;5038771;28;20068;-67
2023/09/05 02:22:37;;;;;;;8.75;4.95;;;;;;;-146.27;84.09;81841.84;5046124;28;20481;-67
2023/09/05 02:25:03;;;;;;;5.40;4.65;;;;;;;-146.27;83.23;81833.81;5038376;28;20025;-67
2023/09/05 02:27:28;;;;;;;7.20;5.15;;;;;;;-146.27;84.21;81873.97;5040068;28;20033;-69
2023/09/05 02:29:56;;;;;;;7.05;5.32;;;;;;;-146.27;83.84;81843.84;5046713;28;20028;-69
2023/09/05 02:32:24;;;;;;;8.00;4.53;;;;;;;-146.27;83.71;81859.94;5039183;28;20033;-69
2023/09/05 02:34:52;;;;;;;7.20;5.00;;;;;;;-146.27;83.63;81865.94;5046396;28;20469;-68
2023/09/05 02:37:17;;;;;;;8.20;5.30;;;;;;;-146.27;84.65;81886.03;5037460;28;20118;-69
2023/09/05 02:39:43;;;;;;;8.73;5.13;;;;;;;-146.27;84.09;81910.13;5039745;28;20072;-68
2023/09/05 02:42:08;;;;;;;8.52;5.32;;;;;;;-146.27;84.15;81904.13;5033763;28;20029;-69
2023/09/05 02:44:33;;;;;;;10.80;5.45;;;;;;;-146.27;84.29;81930.22;5038618;28;20115;-68
2023/09/05 02:46:59;;;;;;;6.38;4.85;;;;;;;-146.27;84.03;81914.16;5044877;28;20115;-68
2023/09/05 02:49:24;;;;;;;9.20;5.60;;;;;;;-146.27;83.96;81936.25;5042134;28;20049;-69
2023/09/05 02:51:49;;;;;;;6.97;5.63;;;;;;;-146.27;84.65;81934.25;5045114;28;20503;-72
2023/09/05 02:54:15;;;;;;;7.38;5.55;;;;;;;-146.27;84.25;81930.22;5045803;28;20405;-72
2023/09/05 02:56:40;;;;;;;5.80;5.13;;;;;;;-146.27;84.15;81900.09;5047300;28;20024;-72
2023/09/05 02:59:05;;;;;;;11.27;4.60;;;;;;;-146.27;83.91;81894.06;5048591;28;20029;-72
2023/09/05 03:01:31;;;;;;;8.00;5.47;;;;;;;-146.27;83.88;81894.06;5049377;28;20029;-72
2023/09/05 03:03:56;;;;;;;9.45;6.32;;;;;;;-146.27;83.63;81910.13;5038631;28;20025;-72
2023/09/05 03:06:22;;;;;;;9.27;5.18;;;;;;;-146.27;83.44;81888.03;5046663;28;20107;-72
2023/09/05 03:08:47;;;;;;;9.95;5.93;;;;;;;-146.27;83.47;81904.13;5053089;28;20035;-72
2023/09/05 03:11:17;;;;;;;8.48;5.60;;;;;;;-146.27;83.93;81914.16;5046048;28;20042;-72
2023/09/05 03:13:44;;;;;;;7.20;4.95;;;;;;;-146.27;83.73;81938.25;5044868;28;20071;-72
2023/09/05 03:16:09;;;;;;;8.55;5.75;;;;;;;-146.27;84.31;81966.38;5055709;28;20819;-72
2023/09/05 03:18:35;;;;;;;11.93;5.88;;;;;;;-146.27;84.45;81986.47;5056120;28;20093;-72
2023/09/05 03:21:00;;;;;;;7.22;5.47;;;;;;;-146.27;84.50;82014.59;5039990;28;20032;-72
2023/09/05 03:23:26;;;;;;;6.82;5.03;;;;;;;-146.27;84.86;81968.38;5041237;28;20059;-72
2023/09/05 03:25:52;;;;;;;6.55;5.18;;;;;;;-146.27;85.17;82028.66;5064240;28;20446;-72
2023/09/05 03:28:18;;;;;;;8.10;5.50;;;;;;;-146.27;85.72;82034.66;5048564;28;20036;-72
2023/09/05 03:30:43;;;;;;;8.25;5.38;;;;;;;-146.27;85.21;82036.69;5052157;28;20036;-72
2023/09/05 03:33:09;;;;;;;7.03;5.80;;;;;;;-146.27;85.04;82042.69;5050164;28;20096;-72
2023/09/05 03:35:35;;;;;;;8.02;5.90;;;;;;;-146.27;86.12;82066.81;5038179;28;20112;-73
2023/09/05 03:38:01;;;;;;;9.02;5.32;;;;;;;-146.27;85.78;82032.66;5050476;28;20100;-71
2023/09/05 03:40:27;;;;;;;6.97;5.45;;;;;;;-146.27;85.25;82018.59;5053999;28;20068;-71
2023/09/05 03:42:52;;;;;;;7.43;5.43;;;;;;;-146.27;85.91;82050.75;5053179;28;20052;-71
2023/09/05 03:45:19;;;;;;;8.15;5.80;;;;;;;-146.27;85.06;82066.81;5050574;28;20485;-72
2023/09/05 03:47:44;;;;;;;9.45;6.25;;;;;;;-146.27;85.31;82046.72;5038291;28;20041;-71
2023/09/05 03:50:10;;;;;;;7.32;5.43;;;;;;;-146.27;85.41;82056.75;5037853;28;20128;-71
2023/09/05 03:52:35;;;;;;;9.52;5.88;;;;;;;-146.27;85.64;82104.97;5049646;28;20079;-71
2023/09/05 03:55:01;;;;;;;8.73;6.15;;;;;;;-146.27;85.69;82064.81;5045373;28;20017;-71
2023/09/05 03:57:26;;;;;;;7.85;6.00;;;;;;;-146.27;85.03;82040.69;5042737;28;20029;-71
2023/09/05 03:59:52;;;;;;;7.20;5.32;;;;;;;-146.27;85.77;82058.78;5039312;28;20067;-71
2023/09/05 04:02:17;;;;;;;6.47;5.57;;;;;;;-146.27;85.44;82082.88;5036094;28;20033;-68
2023/09/05 04:04:43;;;;;;;7.30;5.10;;;;;;;-146.27;85.86;82121.03;5039834;28;20021;-68
2023/09/05 04:07:09;;;;;;;9.43;6.25;;;;;;;-146.27;85.46;82078.84;5042101;28;20025;-68
2023/09/05 04:09:35;;;;;;;9.35;5.75;;;;;;;-146.27;85.33;82106.97;5039466;28;20033;-68
2023/09/05 04:12:00;;;;;;;10.15;6.13;;;;;;;-146.27;85.64;82123.06;5033131;28;20037;-70
2023/09/05 04:14:25;;;;;;;10.25;5.60;;;;;;;-146.27;85.82;82127.06;5045785;28;20394;-67
2023/09/05 04:16:51;;;;;;;7.47;5.90;;;;;;;-146.27;85.94;82155.19;5050035;28;20552;-68
2023/09/05 04:19:16;;;;;;;8.23;5.38;;;;;;;-146.27;86.48;82179.28;5034632;28;20453;-69
2023/09/05 04:21:42;;;;;;;9.75;5.63;;;;;;;-146.27;86.37;82189.34;5046836;28;20049;-67
2023/09/05 04:24:07;;;;;;;7.05;6.13;;;;;;;-146.27;86.66;82179.28;5044039;28;20485;-67
2023/09/05 04:26:37;;;;;;;6.60;5.80;;;;;;;-146.27;86.93;82205.41;5046088;28;20029;-69
2023/09/05 04:29:04;;;;;;;7.93;5.57;;;;;;;-146.27;87.18;82185.31;5049578;28;20031;-68
2023/09/05 04:31:30;;;;;;;13.38;6.20;;;;;;;-146.27;87.31;82239.56;5048832;28;20111;-68
2023/09/05 04:33:55;;;;;;;9.88;5.95;;;;;;;-146.27;87.51;82251.59;5040449;28;20151;-68
2023/09/05 04:36:22;;;;;;;8.88;6.25;;;;;;;-146.27;87.51;82267.69;5047518;28;20400;-67
2023/09/05 04:38:49;;;;;;;8.52;6.32;;;;;;;-146.27;87.43;82255.63;5043200;28;20055;-67
2023/09/05 04:41:15;;;;;;;12.15;5.72;;;;;;;-146.27;87.78;82259.66;5051099;28;20500;-67
2023/09/05 04:43:40;;;;;;;13.07;6.70;;;;;;;-146.27;87.52;82209.44;5058463;28;20029;-67
2023/09/05 04:46:08;;;;;;;7.80;6.30;;;;;;;-146.27;87.72;82275.72;5033801;28;20473;-67
2023/09/05 04:48:33;;;;;;;8.43;6.43;;;;;;;-146.27;87.89;82281.75;5037559;28;20053;-68
2023/09/05 04:51:01;;;;;;;9.25;6.68;;;;;;;-146.27;88.70;82243.56;5047214;28;20442;-67
2023/09/05 04:53:30;;;;;;;9.75;6.40;;;;;;;-146.27;88.53;82271.69;5044882;28;20036;-67
2023/09/05 04:56:00;;;;;;;9.35;6.70;;;;;;;-146.27;88.06;82267.69;5038589;28;20077;-67
2023/09/05 04:58:29;;;;;;;10.80;6.13;;;;;;;-146.27;87.91;82225.50;5046696;28;20104;-69
2023/09/05 05:01:02;;;;;;;10.68;6.60;;;;;;;-146.27;88.64;82243.56;5036788;28;20508;-68
2023/09/05 05:03:32;;;;;;;11.33;6.47;;;;;;;-146.27;87.85;82253.63;5050902;28;20081;-68
2023/09/05 05:05:57;;;;;;;9.27;5.90;;;;;;;-146.27;87.43;82239.56;5046117;28;20021;-69
2023/09/05 05:08:22;;;;;;;8.10;6.30;;;;;;;-146.27;87.81;82251.59;5045818;28;20056;-68
2023/09/05 05:10:48;;;;;;;9.73;6.65;;;;;;;-146.27;87.73;82223.47;5044465;28;20113;-68
2023/09/05 05:13:13;;;;;;;9.25;6.70;;;;;;;-146.27;87.48;82219.47;5042128;28;20028;-72
2023/09/05 05:15:39;;;;;;;13.02;6.20;;;;;;;-146.27;87.47;82179.28;5047174;28;20040;-72
2023/09/05 05:18:04;;;;;;;11.23;6.38;;;;;;;-146.27;87.71;82187.31;5046920;28;20131;-71
2023/09/05 05:20:30;;;;;;;9.38;6.50;;;;;;;-146.27;86.75;82171.25;5044787;28;20029;-71
2023/09/05 05:22:55;;;;;;;13.50;6.88;;;;;;;-146.27;87.53;82165.22;5048474;28;20043;-71
2023/09/05 05:25:21;;;;;;;8.32;6.15;;;;;;;-146.27;86.77;82241.56;5044657;28;20044;-72
2023/09/05 05:27:47;;;;;;;8.57;6.28;;;;;;;-146.27;86.75;82267.69;5046108;28;20035;-71
2023/09/05 05:30:12;;;;;;;10.13;6.57;;;;;;;-146.27;87.79;82223.47;5032594;28;20041;-71
2023/09/05 05:32:38;;;;;;;9.73;6.65;;;;;;;-146.27;87.07;82223.47;5036026;28;20049;-67
2023/09/05 05:35:03;;;;;;;8.90;6.47;;;;;;;-146.27;87.24;82267.69;5041417;28;20040;-72
2023/09/05 05:37:29;;;;;;;10.25;6.18;;;;;;;-146.27;87.56;82243.56;5044380;28;20059;-69
2023/09/05 05:39:54;;;;;;;9.85;6.25;;;;;;;-146.27;88.07;82273.72;5038319;28;20115;-69
2023/09/05 05:42:20;;;;;;;9.15;6.32;;;;;;;-146.27;87.98;82235.53;5038837;28;20045;-69
2023/09/05 05:44:45;;;;;;;17.92;6.68;;;;;;;-146.27;88.00;82207.41;5037050;28;20021;-69
2023/09/05 05:47:11;;;;;;;10.45;6.30;;;;;;;-146.27;87.95;82211.44;5034930;28;20068;-69
2023/09/05 05:49:36;;;;;;;12.90;7.00;;;;;;;-146.27;88.27;82211.44;5049685;28;20025;-70
2023/09/05 05:52:02;;;;;;;12.00;6.68;;;;;;;-146.27;87.87;82235.53;5047413;28;20020;-70
2023/09/05 05:54:27;;;;;;;12.52;6.60;;;;;;;-146.27;88.11;82197.38;5035729;28;20516;-69
2023/09/05 05:56:55;;;;;;;11.98;6.03;;;;;;;-146.27;87.58;82195.38;5042488;28;20237;-69
2023/09/05 05:59:20;;;;;;;9.82;6.50;;;;;;;-146.27;87.56;82171.25;5038883;28;20086;-69
2023/09/05 06:01:46;;;;;;;10.98;6.90;;;;;;;-146.27;87.42;82151.16;5035779;28;20108;-71
2023/09/05 06:04:13;;;;;;;9.45;6.65;;;;;;;-146.27;87.73;82163.22;5032760;28;20060;-70
2023/09/05 06:06:40;;;;;;;11.43;7.10;;;;;;;-146.27;88.00;82155.19;5033195;28;20389;-70
2023/09/05 06:09:05;;;;;;;11.52;6.57;;;;;;;-146.27;87.44;82165.22;5045869;28;20057;-73
2023/09/05 06:11:31;;;;;;;10.20;6.30;;;;;;;-146.27;87.56;82143.13;5040951;28;20150;-70
2023/09/05 06:13:56;;;;;;;8.43;6.32;;;;;;;-146.27;87.92;82115.00;5039335;28;20038;-72
2023/09/05 06:16:22;;;;;;;9.73;6.45;;;;;;;-146.27;87.35;82115.00;5043095;28;20472;-69
2023/09/05 06:18:47;;;;;;;9.75;6.13;;;;;;;-146.27;87.45;82117.03;5039424;28;20123;-72
2023/09/05 06:21:13;;;;;;;8.50;6.53;;;;;;;-146.27;87.59;82080.88;5041525;28;20159;-67
2023/09/05 06:23:38;;;;;;;8.57;6.22;;;;;;;-146.27;87.78;82092.91;5039556;28;20025;-68
2023/09/05 06:26:04;;;;;;;9.65;6.40;;;;;;;-146.27;87.62;82098.94;5036132;28;20521;-67
2023/09/05 06:28:29;;;;;;;9.30;6.72;;;;;;;-146.27;87.66;82020.59;5047936;28;20499;-68
2023/09/05 06:30:58;;;;;;;9.73;6.00;;;;;;;-146.27;87.09;82026.63;5046948;28;20029;-66
2023/09/05 06:33:24;;;;;;;8.30;6.13;;;;;;;-146.27;87.19;82028.66;5036261;28;20055;-66
2023/09/05 06:35:49;;;;;;;9.40;6.57;;;;;;;-146.27;86.78;82026.63;5045343;28;20020;-67
2023/09/05 06:38:15;;;;;;;10.88;6.38;;;;;;;-146.27;86.39;81960.34;5040150;28;20056;-67
2023/09/05 06:40:40;;;;;;;9.25;6.03;;;;;;;-146.27;86.24;81920.19;5037567;28;20093;-67
2023/09/05 06:43:08;;;;;;;9.40;6.18;;;;;;;-146.27;85.42;81934.25;5032673;28;20029;-67
2023/09/05 06:45:34;;;;;;;8.02;6.43;;;;;;;-146.27;84.73;81890.06;5040680;28;20048;-67
2023/09/05 06:47:59;;;;;;;9.55;6.07;;;;;;;-146.27;84.15;81878.00;5035602;28;20091;-67
2023/09/05 06:50:25;;;;;;;7.07;5.75;;;;;;;-146.27;83.62;81805.69;5039178;28;20477;-67
2023/09/05 06:52:50;;;;;;;12.85;6.57;;;;;;;-146.27;83.14;81781.59;5046543;28;20073;-67
2023/09/05 06:55:16;;;;;;;14.85;5.18;;;;;;;-146.27;82.88;81815.72;5032667;28;20081;-69
2023/09/05 06:57:41;;;;;;;10.48;5.97;;;;;;;-146.27;82.58;81747.44;5048933;28;20017;-67
2023/09/05 07:00:07;;;;;;;9.27;5.13;;;;;;;-146.27;82.46;81743.44;5049135;28;20114;-68
2023/09/05 07:02:32;;;;;;;8.00;5.75;;;;;;;-146.27;82.03;81725.34;5048859;28;20481;-67
2023/09/05 07:04:58;;;;;;;6.78;5.30;;;;;;;-146.27;81.46;81693.22;5047849;28;20192;-67
2023/09/05 07:07:25;;;;;;;10.40;6.13;;;;;;;-146.27;81.15;81697.22;5049061;28;20025;-67
2023/09/05 07:09:50;;;;;;;7.00;5.03;;;;;;;-146.27;81.02;81673.13;5049783;28;20100;-67
2023/09/05 07:12:16;;;;;;;10.23;6.07;;;;;;;-146.27;80.56;81665.09;5042501;28;20160;-67
2023/09/05 07:14:42;;;;;;;8.70;6.07;;;;;;;-146.27;80.59;81647.03;5049719;28;20382;-67
2023/09/05 07:17:08;;;;;;;8.52;5.00;;;;;;;-146.27;80.21;81626.94;5039026;28;20175;-67
2023/09/05 07:19:33;;;;;;;12.98;5.90;;;;;;;-146.27;79.98;81600.84;5029934;28;20021;-67
2023/09/05 07:21:58;;;;;;;7.82;5.97;;;;;;;-146.27;79.60;81598.81;5029721;28;20033;-68
2023/09/05 07:24:24;;;;;;;9.43;5.88;;;;;;;-146.27;79.43;81568.69;5029990;28;20111;-68
2023/09/05 07:26:49;;;;;;;8.98;5.35;;;;;;;-146.27;79.00;81572.72;5029899;28;20465;-68
2023/09/05 07:29:15;;;;;;;7.13;5.43;;;;;;;-146.27;78.71;81490.38;5029336;28;20025;-68
2023/09/05 07:31:42;;;;;;;7.68;5.97;;;;;;;-146.27;78.49;81504.44;5039465;28;20144;-67
2023/09/05 07:34:08;;;;;;;8.15;4.82;;;;;;;-146.27;78.42;81504.44;5048638;28;20482;-67
2023/09/05 07:36:35;;;;;;;9.98;5.90;;;;;;;-146.27;78.22;81482.34;5043885;28;20052;-69
2023/09/05 07:39:03;;;;;;;7.28;5.13;;;;;;;-146.27;78.41;81404.00;5039224;28;20032;-67
2023/09/05 07:41:30;;;;;;;8.25;4.20;;;;;;;-146.27;78.15;81395.97;5048673;28;20029;-68
2023/09/05 07:43:55;;;;;;;10.00;5.78;;;;;;;-146.27;77.75;81371.88;5048523;28;20545;-67
2023/09/05 07:46:20;;;;;;;6.80;4.70;;;;;;;-146.27;77.33;81317.66;5045359;28;20041;-67
2023/09/05 07:48:47;;;;;;;10.48;4.60;;;;;;;-146.27;76.74;81315.66;5048706;28;20211;-67
2023/09/05 07:51:13;;;;;;;10.82;5.07;;;;;;;-146.27;76.14;81315.66;5051921;28;20052;-68
2023/09/05 07:53:38;;;;;;;6.85;4.43;;;;;;;-146.27;76.00;81227.28;5036481;28;20032;-67
2023/09/05 07:56:04;;;;;;;10.48;4.97;;;;;;;-146.27;74.60;81179.09;5037137;28;20033;-68
2023/09/05 07:58:30;;;;;;;5.40;4.32;;;;;;;-146.27;74.11;81167.03;5040624;28;20396;-66
2023/09/05 08:00:56;;;;;;;5.97;4.05;;;;;;;-146.27;73.86;81181.09;5052155;28;20112;-69
2023/09/05 08:03:22;;;;;;;6.60;4.00;;;;;;;-146.27;74.25;81146.97;5034221;28;20072;-68
2023/09/05 08:05:49;;;;;;;5.75;4.15;;;;;;;-146.27;73.62;81090.72;5045388;28;20473;-69
2023/09/05 08:08:15;;;;;;;8.30;4.15;;;;;;;-146.27;73.44;81102.78;5041482;28;20048;-68
2023/09/05 08:10:41;;;;;;;7.05;4.47;;;;;;;-146.27;73.59;81044.53;5042651;28;20499;-68
2023/09/05 08:13:09;;;;;;;9.98;4.40;;;;;;;-146.27;73.03;81006.38;5032598;28;20016;-67
2023/09/05 08:15:36;;;;;;;7.38;4.45;;;;;;;-146.27;73.18;81026.47;5042081;28;20055;-68
2023/09/05 08:18:02;;;;;;;14.20;4.70;;;;;;;-146.27;71.97;80990.31;5040377;28;20029;-66
2023/09/05 08:20:28;;;;;;;6.28;4.10;;;;;;;-146.27;71.83;80922.03;5035476;28;20155;-70
2023/09/05 08:22:53;;;;;;;7.68;4.53;;;;;;;-146.27;71.46;80914.00;5043591;28;20481;-67
2023/09/05 08:25:18;;;;;;;7.15;4.13;;;;;;;-146.27;71.44;80821.63;5047115;28;20111;-67
2023/09/05 08:27:44;;;;;;;7.28;3.88;;;;;;;-146.27;70.43;80833.69;5045704;28;20028;-67
2023/09/05 08:30:11;;;;;;;8.63;4.30;;;;;;;-146.27;70.55;80771.44;5032512;28;20389;-67
2023/09/05 08:32:39;;;;;;;4.88;3.75;;;;;;;-146.27;70.34;80725.25;5040595;28;20033;-68
2023/09/05 08:35:09;;;;;;;4.90;3.60;;;;;;;-146.27;69.57;80669.03;5041286;28;20021;-68
2023/09/05 08:37:35;;;;;;;6.70;3.72;;;;;;;-146.27;69.61;80673.06;5057627;28;20036;-67
2023/09/05 08:40:00;;;;;;;4.13;3.08;;;;;;;-146.27;69.04;80652.97;5046081;28;20025;-67
2023/09/05 08:42:30;;;;;;;5.70;3.75;;;;;;;-146.27;68.84;80620.84;5043994;28;20033;-69
2023/09/05 08:44:58;;;;;;;9.07;4.30;;;;;;;-146.27;67.77;80612.81;5049785;28;20111;-70
2023/09/05 08:47:26;;;;;;;7.32;3.80;;;;;;;-146.27;67.78;80496.34;5047716;28;20029;-70
2023/09/05 08:49:51;;;;;;;7.30;3.97;;;;;;;-146.27;67.91;80484.31;5051932;28;20484;-70
2023/09/05 08:52:18;;;;;;;7.55;4.22;;;;;;;-146.27;67.68;80414.03;5047938;28;20052;-70
2023/09/05 08:54:44;;;;;;;5.05;4.13;;;;;;;-146.27;66.81;80404.00;5050845;28;20085;-70
2023/09/05 08:57:11;;;;;;;5.88;3.72;;;;;;;-146.27;66.84;80347.78;5040078;28;20444;-70
2023/09/05 08:59:37;;;;;;;6.40;3.85;;;;;;;-146.27;66.89;80301.59;5041628;28;20029;-70
2023/09/05 09:02:02;;;;;;;5.65;3.65;;;;;;;-146.27;66.79;80271.47;5043474;28;20074;-70
2023/09/05 09:04:29;;;;;;;5.97;4.03;;;;;;;-146.27;66.23;80251.41;5049627;28;20025;-70
2023/09/05 09:06:57;;;;;;;7.68;4.07;;;;;;;-146.27;65.54;80171.09;5035837;28;20085;-71
2023/09/05 09:09:38;;;;;;;6.00;3.72;;;;;;;-146.27;65.05;80082.75;5049858;28;20025;-70
2023/09/05 09:12:04;;;;;;;6.00;3.05;;;;;;;-146.27;65.10;80092.78;5038554;28;20108;-70
2023/09/05 09:14:30;;;;;;;7.07;3.53;;;;;;;-146.27;64.87;80028.56;5038170;28;20082;-71
2023/09/05 09:16:59;;;;;;;9.35;4.10;;;;;;;-146.27;62.84;80018.50;5038153;28;20090;-70
2023/09/05 09:19:24;;;;;;;5.40;3.63;;;;;;;-146.27;63.48;79980.38;5042969;28;20041;-70
2023/09/05 09:21:50;;;;;;;5.95;3.08;;;;;;;-146.27;63.59;79918.13;5043449;28;20082;-71
2023/09/05 09:24:18;;;;;;;7.18;3.97;;;;;;;-146.27;61.99;79912.13;5034715;28;20124;-70
2023/09/05 09:26:45;;;;;;;8.05;4.05;;;;;;;-146.27;62.76;79861.94;5036393;28;20053;-71
2023/09/05 09:29:10;;;;;;;7.45;3.30;;;;;;;-146.27;62.39;79853.88;5042222;28;20036;-71
2023/09/05 09:31:40;;;;;;;7.15;4.10;;;;;;;-146.27;62.90;79805.72;5038948;28;20032;-71
2023/09/05 09:34:06;;;;;;;5.60;3.60;;;;;;;-146.27;61.70;79741.47;5048627;28;20020;-71
2023/09/05 09:36:37;;;;;;;7.57;3.65;;;;;;;-146.27;61.20;79687.28;5035489;28;20523;-71
2023/09/05 09:39:10;;;;;;;5.28;3.47;;;;;;;-146.27;61.65;79570.84;5035180;28;20374;-70
2023/09/05 09:41:40;;;;;;;;;;;;;;;-146.27;61.43;79530.69;5034232;28;20036;-70
2023/09/05 09:44:05;;;;;;;5.80;3.08;;;;;;;-146.27;59.56;79480.50;5037144;28;20011;-70
2023/09/05 09:46:31;;;;;;;8.15;4.35;;;;;;;-146.27;58.83;79496.56;5045794;28;20904;-70
2023/09/05 09:48:59;;;;;;;5.00;3.00;;;;;;;-146.27;63.71;79380.16;5042112;28;20026;-71
2023/09/05 09:51:29;;;;;;;10.13;4.28;;;;;;;-146.27;60.46;79321.94;5048237;28;20032;-65
2023/09/05 09:53:56;;;;;;;8.90;3.83;;;;;;;-146.27;61.08;79287.81;5039521;28;20116;-69
2023/09/05 09:56:26;;;;;;;6.70;3.05;;;;;;;-146.27;59.42;79199.50;5043291;28;20429;-68
2023/09/05 09:58:56;;;;;;;7.90;3.75;;;;;;;-146.27;57.94;79167.38;5037567;28;20087;-68
2023/09/05 10:01:23;;;;;;;7.13;3.13;;;;;;;-146.27;58.22;79093.09;5043813;28;20036;-66
2023/09/05 10:03:49;;;;;;;6.53;3.60;;;;;;;-146.27;58.37;79018.84;5030750;28;20481;-68
2023/09/05 10:06:16;;;;;;;5.75;3.65;;;;;;;-146.27;56.35;78972.69;5034633;28;20095;-69
2023/09/05 10:08:44;;;;;;;5.75;3.33;;;;;;;-146.27;58.02;78850.25;5034573;28;20025;-68
2023/09/05 10:11:10;;;;;;;7.05;3.05;;;;;;;-146.27;58.59;78767.97;5037855;28;20025;-68
2023/09/05 10:13:38;;;;;;;6.80;4.00;;;;;;;-146.27;56.83;78723.81;5040059;28;20036;-68
2023/09/05 10:16:04;;;;;;;9.52;4.28;;;;;;;-146.27;57.56;78663.59;5041918;28;20030;-68
2023/09/05 10:18:31;;;;;;;9.27;4.40;;;;;;;-146.27;56.71;78553.22;5048764;28;20021;-68
2023/09/05 10:21:00;;;;;;;9.63;4.38;;;;;;;-146.27;54.75;78537.16;5037854;28;20029;-68
2023/09/05 10:23:29;;;;;;;12.50;3.70;;;;;;;-146.27;53.07;78511.06;5037968;28;20481;-69
2023/09/05 10:25:57;;;;;;;4.85;2.92;;;;;;;-146.27;55.11;78366.59;5038537;28;20108;-70
2023/09/05 10:28:27;;;;;;;7.35;3.38;;;;;;;-146.27;56.36;78306.38;5039902;28;20029;-68
2023/09/05 10:30:54;;;;;;;4.88;2.90;;;;;;;-146.27;57.04;78187.97;5027316;28;20040;-66
2023/09/05 10:33:31;;;;;;;10.55;3.72;;;;;;;-146.27;55.84;78027.44;5025739;28;20053;-66
2023/09/05 10:35:57;;;;;;;5.75;2.95;;;;;;;-146.27;53.44;77975.28;5029417;28;20037;-65
2023/09/05 10:38:22;;;;;;;6.93;2.95;;;;;;;-146.27;54.21;77862.91;5039234;28;20416;-68
2023/09/05 10:40:47;;;;;;;12.93;3.28;;;;;;;-146.27;51.51;77872.94;5031072;28;20029;-67
2023/09/05 10:43:22;;;;;;;11.85;3.58;;;;;;;-146.27;48.29;77818.75;5038112;28;20036;-68
2023/09/05 10:46:15;;;;;;;5.90;4.18;;;;;;;-146.27;50.55;77640.19;5047889;28;20536;-68
2023/09/05 10:48:45;;;;;;;5.10;3.47;;;;;;;-146.27;49.56;77517.81;5047361;28;20128;-68
2023/09/05 10:51:15;;;;;;;5.20;3.55;;;;;;;-146.27;51.09;77419.50;5040932;28;20029;-68
2023/09/05 10:53:43;;;;;;;7.45;3.72;;;;;;;-146.27;50.67;77357.28;5033470;28;20029;-67
2023/09/05 10:56:40;;;;;;;6.88;3.47;;;;;;;-146.27;49.74;77244.94;5031829;28;20056;-67
2023/09/05 10:59:10;;;;;;;7.43;3.85;;;;;;;-146.27;51.30;77275.03;5039914;28;20030;-67
2023/09/05 11:01:35;;;;;;;7.15;3.55;;;;;;;-146.27;49.41;77148.66;5034914;28;20057;-70
2023/09/05 11:04:07;;;;;;;5.03;3.70;;;;;;;-146.27;51.60;77052.34;5050548;28;20502;-70
2023/09/05 11:06:33;;;;;;;4.88;3.08;;;;;;;-146.27;50.83;76905.91;5041912;28;20043;-70
2023/09/05 11:09:06;;;;;;;8.43;3.53;;;;;;;-146.27;50.00;76847.72;5048045;28;20040;-70
2023/09/05 11:11:37;;;;;;;5.13;3.70;;;;;;;-146.27;50.86;76887.84;5036841;28;20021;-70
2023/09/05 11:14:06;;;;;;;7.72;3.20;;;;;;;-146.27;48.54;76719.34;5036664;28;20048;-69
2023/09/05 11:16:52;;;;;;;6.25;4.18;;;;;;;-146.27;48.26;76679.22;5037188;28;20139;-70